VEJS/IXW METAR and TAF weather

Enter ICAO airport designator
Station Type Date Time Source
VEJS METAR 2018/12/10 03:00 UTC NOAA

VEJS 100300Z 00000KT 1800 HZ NSC 15/08 Q1017


Station Type Date Time Source
VEJS Decoded METAR 2018/12/10 03:00 UTC NOAA

Jamshedpur, India (VEJS) 22-49N 086-11E 142M
Dec 09, 2018 - 10:00 PM EST / 2018.12.10 0300 UTC
Wind: Calm:0
Visibility: 1 mile(s):0
Weather: haze
Temperature: 59 F (15 C)
Dew Point: 46 F (8 C)
Relative Humidity: 62%
Pressure (altimeter): 30.03 in. Hg (1017 hPa)
ob: VEJS 100300Z 00000KT 1800 HZ NSC 15/08 Q1017
cycle: 3

Station Type Date Time Source
VEJS TAF 2009/11/01 09:00 UTC NOAA

TAF VEJS 010900Z 0112/0121 36004KT 2500 HZ FEW020 SCT025 SCT100
BECMG 0116/0118 00000KT 2000 HZ FEW018 SCT
BECMG 0119/0121 00000KT 1600 BR


Example: see airport list